Time,TemperatureF,DewpointF,PressureIn,WindDirection,WindDirectionDegrees,WindSpeedMPH,WindSpeedGustMPH,Humidity,HourlyPrecipIn,Conditions,Clouds,dailyrainin,SoftwareType,DateUTC
2013-01-02 00:04:00,71.8,61.9,30.03,ESE,105,0.0,0.0,71,0.00,,SCT120,0.00,VWS V14.01,2013-01-02 04:04:00,
2013-01-02 00:09:00,71.6,61.7,30.00,ESE,105,0.0,0.0,71,0.00,,SCT120,0.00,VWS V14.01,2013-01-02 04:09:00,
2013-01-02 00:14:00,71.2,61.4,30.00,ESE,105,0.0,0.0,71,0.00,,SCT120,0.00,VWS V14.01,2013-01-02 04:14:00,
2013-01-02 00:19:00,71.1,61.6,30.00,ESE,105,0.0,0.0,72,0.00,,SCT120,0.00,VWS V14.01,2013-01-02 04:19:00,
2013-01-02 00:24:00,71.1,61.6,30.03,ESE,105,0.0,0.0,72,0.00,,SCT120,0.00,VWS V14.01,2013-01-02 04:24:00,
2013-01-02 00:29:00,71.1,62.0,30.03,ESE,104,0.0,0.0,73,0.00,,SCT120,0.00,VWS V14.01,2013-01-02 04:29:00,
2013-01-02 00:34:00,71.2,62.2,30.03,ESE,105,0.0,0.0,73,0.00,,SCT120,0.00,VWS V14.01,2013-01-02 04:34:00,
2013-01-02 00:39:00,71.2,62.2,30.03,ESE,105,0.0,0.0,73,0.00,,SCT120,0.00,VWS V14.01,2013-01-02 04:39:00,
2013-01-02 00:44:00,71.2,62.2,30.03,ESE,104,0.0,0.0,73,0.00,,SCT120,0.00,VWS V14.01,2013-01-02 04:44:00,
2013-01-02 00:49:00,71.2,62.2,30.03,ESE,104,0.0,0.0,73,0.00,,SCT120,0.00,VWS V14.01,2013-01-02 04:49:00,
2013-01-02 00:54:00,71.1,62.0,30.00,ESE,104,0.0,0.0,73,0.00,,SCT120,0.00,VWS V14.01,2013-01-02 04:54:00,
2013-01-02 00:59:00,70.9,61.8,30.00,ESE,104,0.0,0.0,73,0.00,,SCT120,0.00,VWS V14.01,2013-01-02 04:59:00,
2013-01-02 01:00:00,70.9,61.8,30.00,ESE,104,0.0,0.0,73,0.00,,SCT120,0.00,VWS V14.01,2013-01-02 05:00:00,
2013-01-02 01:01:00,70.7,61.6,30.00,ESE,104,0.0,0.0,73,0.00,,SCT120,0.00,VWS V14.01,2013-01-02 05:01:00,
2013-01-02 01:06:00,70.7,62.0,30.00,ESE,104,0.0,0.0,74,0.00,,SCT120,0.00,VWS V14.01,2013-01-02 05:06:00,
2013-01-02 01:11:00,70.7,62.0,30.00,ESE,105,0.0,0.0,74,0.00,,SCT120,0.00,VWS V14.01,2013-01-02 05:11:00,
2013-01-02 01:16:00,70.7,62.0,30.00,ESE,104,0.0,0.0,74,0.00,,SCT120,0.00,VWS V14.01,2013-01-02 05:16:00,
2013-01-02 01:21:00,70.5,61.8,30.00,ESE,104,0.0,0.0,74,0.00,,SCT120,0.00,VWS V14.01,2013-01-02 05:21:00,
2013-01-02 01:26:00,70.5,62.2,30.00,ESE,104,0.0,0.0,75,0.00,,SCT120,0.00,VWS V14.01,2013-01-02 05:26:00,
2013-01-02 01:31:00,70.5,62.2,30.00,ESE,105,0.0,0.0,75,0.00,,SCT120,0.00,VWS V14.01,2013-01-02 05:31:00,
2013-01-02 01:36:00,70.5,62.2,30.00,ESE,105,0.0,0.0,75,0.00,,SCT120,0.00,VWS V14.01,2013-01-02 05:36:00,
2013-01-02 01:41:00,70.5,62.2,30.00,ESE,105,0.0,0.0,75,0.00,,SCT120,0.00,VWS V14.01,2013-01-02 05:41:00,
2013-01-02 01:46:00,70.3,62.0,30.00,ESE,104,0.0,0.0,75,0.00,,SCT120,0.00,VWS V14.01,2013-01-02 05:46:00,
2013-01-02 01:51:00,70.2,61.9,30.00,ESE,105,0.0,0.0,75,0.00,,SCT120,0.00,VWS V14.01,2013-01-02 05:51:00,
2013-01-02 01:56:00,70.2,61.9,30.00,ESE,105,0.0,0.0,75,0.00,,SCT120,0.00,VWS V14.01,2013-01-02 05:56:00,
2013-01-02 02:01:00,70.0,61.7,30.00,ESE,104,0.0,0.0,75,0.00,,SCT120,0.00,VWS V14.01,2013-01-02 06:01:00,
2013-01-02 02:06:00,70.0,62.1,30.00,ESE,105,0.0,0.0,76,0.00,,SCT120,0.00,VWS V14.01,2013-01-02 06:06:00,
2013-01-02 02:11:00,70.0,62.1,30.00,ESE,104,0.0,0.0,76,0.00,,SCT120,0.00,VWS V14.01,2013-01-02 06:11:00,
2013-01-02 02:16:00,69.8,62.3,30.00,ESE,105,0.0,0.0,77,0.00,,SCT120,0.00,VWS V14.01,2013-01-02 06:16:00,
2013-01-02 02:21:00,69.8,62.3,29.97,ESE,104,0.0,0.0,77,0.00,,SCT120,0.00,VWS V14.01,2013-01-02 06:21:00,
2013-01-02 02:26:00,69.8,62.3,29.97,ESE,104,0.0,0.0,77,0.00,,SCT120,0.00,VWS V14.01,2013-01-02 06:26:00,
2013-01-02 02:31:00,69.8,62.6,29.97,ESE,105,0.0,0.0,78,0.00,,SCT120,0.00,VWS V14.01,2013-01-02 06:31:00,
2013-01-02 02:36:00,70.0,62.8,29.97,ESE,105,0.0,0.0,78,0.00,,SCT120,0.00,VWS V14.01,2013-01-02 06:36:00,
2013-01-02 02:41:00,70.2,63.0,29.97,ESE,104,0.0,0.0,78,0.00,,SCT120,0.00,VWS V14.01,2013-01-02 06:41:00,
2013-01-02 02:46:00,70.2,63.0,29.97,SE,141,0.0,0.0,78,0.00,,SCT120,0.00,VWS V14.01,2013-01-02 06:46:00,
2013-01-02 02:51:00,70.2,63.0,29.97,SE,141,0.0,0.0,78,0.00,,SCT120,0.00,VWS V14.01,2013-01-02 06:51:00,
2013-01-02 02:56:00,70.2,63.0,29.97,SE,141,0.0,0.0,78,0.00,,SCT120,0.00,VWS V14.01,2013-01-02 06:56:00,
2013-01-02 03:01:00,70.0,62.8,29.97,SE,141,0.0,0.0,78,0.00,,SCT120,0.00,VWS V14.01,2013-01-02 07:01:00,
2013-01-02 03:06:00,69.8,62.6,29.97,SE,141,0.0,0.0,78,0.00,,SCT120,0.00,VWS V14.01,2013-01-02 07:06:00,
2013-01-02 03:11:00,69.6,62.5,29.97,SE,141,0.0,0.0,78,0.00,,SCT120,0.00,VWS V14.01,2013-01-02 07:11:00,
2013-01-02 03:16:00,69.6,62.5,29.97,SE,141,0.0,0.0,78,0.00,,SCT120,0.00,VWS V14.01,2013-01-02 07:16:00,
2013-01-02 03:21:00,69.4,62.7,29.97,SE,140,0.0,0.0,79,0.00,,SCT120,0.00,VWS V14.01,2013-01-02 07:21:00,
2013-01-02 03:26:00,69.6,63.2,29.97,SW,227,2.7,3.6,80,0.00,,SCT120,0.00,VWS V14.01,2013-01-02 07:26:00,
2013-01-02 03:31:00,69.8,63.4,29.97,SW,227,0.0,3.6,80,0.00,,SCT120,0.00,VWS V14.01,2013-01-02 07:31:00,
2013-01-02 03:36:00,69.6,63.2,29.97,SW,227,0.0,3.6,80,0.00,,SCT120,0.00,VWS V14.01,2013-01-02 07:36:00,
2013-01-02 03:41:00,69.4,63.0,29.97,SW,227,0.0,0.0,80,0.00,,SCT120,0.00,VWS V14.01,2013-01-02 07:41:00,
2013-01-02 03:46:00,69.3,62.8,29.97,SW,227,0.0,0.0,80,0.00,,SCT120,0.00,VWS V14.01,2013-01-02 07:46:00,
2013-01-02 03:51:00,69.3,62.8,29.97,SW,227,0.0,0.0,80,0.00,,SCT120,0.00,VWS V14.01,2013-01-02 07:51:00,
2013-01-02 03:56:00,69.3,62.8,29.97,SW,227,0.0,0.0,80,0.00,,SCT120,0.00,VWS V14.01,2013-01-02 07:56:00,
2013-01-02 04:01:00,69.3,62.8,29.97,SW,226,0.0,0.0,80,0.00,,SCT120,0.00,VWS V14.01,2013-01-02 08:01:00,
2013-01-02 04:06:00,69.4,63.0,29.97,SW,226,0.0,0.0,80,0.00,,SCT120,0.00,VWS V14.01,2013-01-02 08:06:00,
2013-01-02 04:11:00,69.6,63.5,29.97,SW,226,0.0,0.0,81,0.00,,SCT120,0.00,VWS V14.01,2013-01-02 08:11:00,
2013-01-02 04:16:00,69.6,63.5,29.97,SW,227,0.0,0.0,81,0.00,,SCT120,0.00,VWS V14.01,2013-01-02 08:16:00,
2013-01-02 04:21:00,69.4,63.0,29.97,SW,227,0.0,0.0,80,0.00,,SCT120,0.00,VWS V14.01,2013-01-02 08:21:00,
2013-01-02 04:26:00,69.3,62.8,29.97,SW,227,0.0,0.0,80,0.00,,SCT120,0.00,VWS V14.01,2013-01-02 08:26:00,
2013-01-02 04:31:00,69.1,62.7,29.97,SW,227,0.0,0.0,80,0.00,,SCT120,0.00,VWS V14.01,2013-01-02 08:31:00,
2013-01-02 04:36:00,69.3,63.2,29.97,SW,226,0.0,0.0,81,0.00,,SCT120,0.00,VWS V14.01,2013-01-02 08:36:00,
2013-01-02 04:41:00,69.4,63.4,29.97,NNE,29,2.2,2.2,81,0.00,,SCT120,0.00,VWS V14.01,2013-01-02 08:41:00,
2013-01-02 04:46:00,69.6,63.9,29.97,NNE,29,0.0,2.7,82,0.00,,SCT120,0.00,VWS V14.01,2013-01-02 08:46:00,
2013-01-02 04:51:00,69.8,64.8,29.97,ENE,73,2.2,3.1,84,0.00,,SCT120,0.00,VWS V14.01,2013-01-02 08:51:00,
2013-01-02 04:56:00,69.8,65.1,29.97,SE,136,0.0,3.1,85,0.00,,SCT120,0.00,VWS V14.01,2013-01-02 08:56:00,
2013-01-02 05:01:00,70.2,65.4,29.97,SSW,206,0.0,0.0,85,0.00,,SCT120,0.00,VWS V14.01,2013-01-02 09:01:00,
2013-01-02 05:06:00,70.0,64.9,29.97,SSW,205,0.0,0.0,84,0.00,,SCT120,0.00,VWS V14.01,2013-01-02 09:06:00,
2013-01-02 05:11:00,69.8,64.8,29.97,SSW,205,0.0,0.0,84,0.00,,SCT120,0.00,VWS V14.01,2013-01-02 09:11:00,
2013-01-02 05:16:00,69.6,64.6,29.97,SSW,206,0.0,0.0,84,0.00,,SCT120,0.00,VWS V14.01,2013-01-02 09:16:00,
2013-01-02 05:21:00,69.4,64.1,29.97,SSW,205,0.0,0.0,83,0.00,,SCT120,0.00,VWS V14.01,2013-01-02 09:21:00,
2013-01-02 05:26:00,69.3,63.9,29.97,SSW,205,0.0,0.0,83,0.00,,SCT120,0.00,VWS V14.01,2013-01-02 09:26:00,
2013-01-02 05:31:00,69.4,64.1,29.97,SSW,205,0.0,0.0,83,0.00,,SCT120,0.00,VWS V14.01,2013-01-02 09:31:00,
2013-01-02 05:36:00,69.4,64.1,29.97,SSW,205,0.0,0.0,83,0.00,,SCT120,0.00,VWS V14.01,2013-01-02 09:36:00,
2013-01-02 05:41:00,69.4,64.1,29.97,SSW,205,0.0,0.0,83,0.00,,SCT120,0.00,VWS V14.01,2013-01-02 09:41:00,
2013-01-02 05:46:00,69.6,64.2,29.97,SSW,205,0.0,0.0,83,0.00,,SCT120,0.00,VWS V14.01,2013-01-02 09:46:00,
2013-01-02 05:51:00,69.6,64.2,29.97,SSW,205,0.0,0.0,83,0.00,,SCT120,0.00,VWS V14.01,2013-01-02 09:51:00,
2013-01-02 05:56:00,69.4,64.1,29.97,SSW,205,0.0,0.0,83,0.00,,SCT120,0.00,VWS V14.01,2013-01-02 09:56:00,
2013-01-02 06:01:00,69.4,64.1,29.97,SSW,205,0.0,0.0,83,0.00,,SCT120,0.00,VWS V14.01,2013-01-02 10:01:00,
2013-01-02 06:06:00,69.3,63.9,30.00,SSW,204,0.0,0.0,83,0.00,,SCT120,0.00,VWS V14.01,2013-01-02 10:06:00,
2013-01-02 06:11:00,69.3,63.9,30.00,SSW,205,0.0,0.0,83,0.00,,SCT120,0.00,VWS V14.01,2013-01-02 10:11:00,
2013-01-02 06:16:00,69.1,63.7,30.00,SSW,206,0.0,0.0,83,0.00,,SCT120,0.00,VWS V14.01,2013-01-02 10:16:00,
2013-01-02 06:21:00,69.1,63.7,30.00,SSW,205,0.0,0.0,83,0.00,,SCT120,0.00,VWS V14.01,2013-01-02 10:21:00,
2013-01-02 06:26:00,68.9,63.5,30.00,SSW,206,0.0,0.0,83,0.00,,SCT120,0.00,VWS V14.01,2013-01-02 10:26:00,
2013-01-02 06:31:00,68.7,63.3,30.00,SSW,205,0.0,0.0,83,0.00,,SCT120,0.00,VWS V14.01,2013-01-02 10:31:00,
2013-01-02 06:36:00,68.5,63.2,30.00,SSW,205,0.0,0.0,83,0.00,,SCT120,0.00,VWS V14.01,2013-01-02 10:36:00,
2013-01-02 06:41:00,68.5,63.2,30.00,SSW,206,0.0,0.0,83,0.00,,SCT120,0.00,VWS V14.01,2013-01-02 10:41:00,
2013-01-02 06:46:00,68.5,63.2,30.00,SSW,205,0.0,0.0,83,0.00,,SCT120,0.00,VWS V14.01,2013-01-02 10:46:00,
2013-01-02 06:51:00,68.5,63.2,30.00,SSW,205,0.0,0.0,83,0.00,,SCT120,0.00,VWS V14.01,2013-01-02 10:51:00,
2013-01-02 06:56:00,68.4,63.3,30.00,SSW,205,0.0,0.0,84,0.00,,SCT120,0.00,VWS V14.01,2013-01-02 10:56:00,
2013-01-02 07:01:00,68.2,63.2,30.00,SSW,205,0.0,0.0,84,0.00,,SCT120,0.00,VWS V14.01,2013-01-02 11:01:00,
2013-01-02 07:06:00,68.4,63.3,30.00,SSW,205,0.0,0.0,84,0.00,,SCT120,0.00,VWS V14.01,2013-01-02 11:06:00,
2013-01-02 07:11:00,68.4,63.3,30.00,SSW,205,0.0,0.0,84,0.00,,SCT120,0.00,VWS V14.01,2013-01-02 11:11:00,
2013-01-02 07:16:00,68.4,63.3,30.00,SSW,205,0.0,0.0,84,0.00,,SCT120,0.00,VWS V14.01,2013-01-02 11:16:00,
2013-01-02 07:21:00,68.5,63.5,30.00,SSW,205,0.0,0.0,84,0.00,,SCT120,0.00,VWS V14.01,2013-01-02 11:21:00,
2013-01-02 07:26:00,68.7,64.0,30.00,SSW,205,0.0,0.0,85,0.00,,SCT120,0.00,VWS V14.01,2013-01-02 11:26:00,
2013-01-02 07:31:00,68.9,64.2,30.00,SSW,205,0.0,0.0,85,0.00,,SCT120,0.00,VWS V14.01,2013-01-02 11:31:00,
2013-01-02 07:36:00,69.1,64.4,30.00,SSW,205,0.0,0.0,85,0.00,,SCT120,0.00,VWS V14.01,2013-01-02 11:36:00,
2013-01-02 07:41:00,69.4,64.7,30.00,SSW,205,0.0,0.0,85,0.00,,SCT120,0.00,VWS V14.01,2013-01-02 11:41:00,
2013-01-02 07:46:00,69.6,64.9,30.00,SSW,205,0.0,0.0,85,0.00,,SCT120,0.00,VWS V14.01,2013-01-02 11:46:00,
2013-01-02 07:51:00,69.8,65.1,30.03,SSW,205,0.0,0.0,85,0.00,,SCT120,0.00,VWS V14.01,2013-01-02 11:51:00,
2013-01-02 07:56:00,70.2,65.4,30.03,SSW,206,0.0,0.0,85,0.00,,SCT120,0.00,VWS V14.01,2013-01-02 11:56:00,
2013-01-02 08:01:00,70.5,65.8,30.03,SSW,203,0.0,0.0,85,0.00,,SCT120,0.00,VWS V14.01,2013-01-02 12:01:00,
2013-01-02 08:06:00,70.9,66.2,30.03,SSW,204,0.0,0.0,85,0.00,,SCT120,0.00,VWS V14.01,2013-01-02 12:06:00,
2013-01-02 08:11:00,71.2,66.2,30.03,SSW,204,0.0,0.0,84,0.00,,SCT120,0.00,VWS V14.01,2013-01-02 12:11:00,
2013-01-02 08:16:00,71.6,66.2,30.03,SSW,205,0.0,0.0,83,0.00,,SCT120,0.00,VWS V14.01,2013-01-02 12:16:00,
2013-01-02 08:21:00,72.1,66.0,30.03,SSW,205,0.0,0.0,81,0.00,,SCT120,0.00,VWS V14.01,2013-01-02 12:21:00,
2013-01-02 08:26:00,72.5,66.3,30.03,SSE,148,0.0,0.0,81,0.00,,SCT120,0.00,VWS V14.01,2013-01-02 12:26:00,
2013-01-02 08:31:00,72.9,66.3,30.03,SSE,153,2.7,3.6,80,0.00,,SCT120,0.00,VWS V14.01,2013-01-02 12:31:00,
2013-01-02 08:36:00,73.2,66.0,30.03,SSE,152,0.0,3.6,78,0.00,,SCT120,0.00,VWS V14.01,2013-01-02 12:36:00,
2013-01-02 08:41:00,73.6,65.2,30.03,SSE,151,0.0,0.0,75,0.00,,SCT120,0.00,VWS V14.01,2013-01-02 12:41:00,
2013-01-02 08:46:00,73.9,64.0,30.03,SSE,151,0.0,2.7,71,0.00,,SCT120,0.00,VWS V14.01,2013-01-02 12:46:00,
2013-01-02 08:51:00,74.3,63.9,30.03,SSE,151,2.2,2.7,70,0.00,,SCT120,0.00,VWS V14.01,2013-01-02 12:51:00,
2013-01-02 08:56:00,74.8,63.6,30.03,SSE,151,0.0,2.7,68,0.00,,SCT120,0.00,VWS V14.01,2013-01-02 12:56:00,
2013-01-02 09:01:00,75.2,62.6,30.03,SSE,152,0.0,0.0,65,0.00,,SCT120,0.00,VWS V14.01,2013-01-02 13:01:00,
2013-01-02 09:06:00,75.6,62.1,30.03,SSE,155,4.0,4.0,63,0.00,,SCT120,0.00,VWS V14.01,2013-01-02 13:06:00,
2013-01-02 09:11:00,75.7,60.4,30.03,SE,138,2.7,4.0,59,0.00,,SCT120,0.00,VWS V14.01,2013-01-02 13:11:00,
2013-01-02 09:16:00,76.5,60.1,30.03,South,172,2.7,4.0,57,0.00,,SCT120,0.00,VWS V14.01,2013-01-02 13:16:00,
2013-01-02 09:21:00,76.5,59.1,30.03,East,81,0.0,3.1,55,0.00,,SCT120,0.00,VWS V14.01,2013-01-02 13:21:00,
2013-01-02 09:26:00,77.2,58.2,30.03,SSE,150,0.0,4.0,52,0.00,,SCT120,0.00,VWS V14.01,2013-01-02 13:26:00,
2013-01-02 09:31:00,77.5,57.5,30.03,SE,144,0.0,4.0,50,0.00,,SCT120,0.00,VWS V14.01,2013-01-02 13:31:00,
2013-01-02 09:36:00,77.7,55.9,30.03,SSE,158,4.0,5.4,47,0.00,,SCT120,0.00,VWS V14.01,2013-01-02 13:36:00,
2013-01-02 09:41:00,78.3,55.8,30.03,South,184,3.6,4.0,46,0.00,,SCT120,0.00,VWS V14.01,2013-01-02 13:41:00,
2013-01-02 09:46:00,78.6,55.5,30.03,SSE,154,4.9,4.9,45,0.00,,SCT120,0.00,VWS V14.01,2013-01-02 13:46:00,
2013-01-02 09:51:00,79.3,54.9,30.03,South,177,3.1,6.3,43,0.00,,SCT120,0.00,VWS V14.01,2013-01-02 13:51:00,
2013-01-02 09:56:00,79.7,54.6,30.03,SSW,192,2.7,6.3,42,0.00,,SCT120,0.00,VWS V14.01,2013-01-02 13:56:00,
2013-01-02 10:01:00,79.7,53.3,30.03,South,184,4.9,6.7,40,0.00,,SCT120,0.00,VWS V14.01,2013-01-02 14:01:00,
2013-01-02 10:06:00,80.1,52.2,30.03,SSE,161,3.6,6.7,38,0.00,,SCT120,0.00,VWS V14.01,2013-01-02 14:06:00,
2013-01-02 10:11:00,80.4,50.3,30.03,South,184,3.6,6.7,35,0.00,,SCT120,0.00,VWS V14.01,2013-01-02 14:11:00,
2013-01-02 10:16:00,80.6,48.9,30.03,South,174,3.6,6.7,33,0.00,,SCT120,0.00,VWS V14.01,2013-01-02 14:16:00,
2013-01-02 10:21:00,81.3,47.8,30.03,SSE,147,4.0,5.8,31,0.00,,SCT120,0.00,VWS V14.01,2013-01-02 14:21:00,
2013-01-02 10:26:00,81.7,48.1,30.03,SSW,192,5.4,5.8,31,0.00,,SCT120,0.00,VWS V14.01,2013-01-02 14:26:00,
2013-01-02 10:31:00,81.7,47.3,30.03,SSE,152,4.9,7.6,30,0.00,,SCT120,0.00,VWS V14.01,2013-01-02 14:31:00,
2013-01-02 10:36:00,81.3,47.0,30.03,East,89,2.2,7.6,30,0.00,,SCT120,0.00,VWS V14.01,2013-01-02 14:36:00,
2013-01-02 10:41:00,80.2,47.7,30.03,ESE,115,5.4,8.1,32,0.00,,SCT120,0.00,VWS V14.01,2013-01-02 14:41:00,
2013-01-02 10:46:00,79.5,47.9,30.03,East,93,5.4,8.1,33,0.00,,SCT120,0.00,VWS V14.01,2013-01-02 14:46:00,
2013-01-02 10:51:00,79.9,48.2,30.03,SE,135,5.4,8.1,33,0.00,,SCT120,0.00,VWS V14.01,2013-01-02 14:51:00,
2013-01-02 10:56:00,81.0,46.6,30.03,ESE,111,8.7,8.7,30,0.00,,SCT120,0.00,VWS V14.01,2013-01-02 14:56:00,
2013-01-02 11:01:00,81.9,46.5,30.03,ENE,65,5.8,10.5,29,0.00,,SCT120,0.00,VWS V14.01,2013-01-02 15:01:00,
2013-01-02 11:06:00,82.4,46.1,30.03,East,91,4.9,10.5,28,0.00,,SCT120,0.00,VWS V14.01,2013-01-02 15:06:00,
2013-01-02 11:11:00,82.6,41.1,30.03,East,85,5.8,10.5,23,0.00,,SCT120,0.00,VWS V14.01,2013-01-02 15:11:00,
2013-01-02 11:16:00,82.8,40.1,30.03,SSE,148,3.6,10.5,22,0.00,,SCT120,0.00,VWS V14.01,2013-01-02 15:16:00,
2013-01-02 11:21:00,83.3,40.5,30.03,ENE,61,6.3,8.1,22,0.00,,SCT120,0.00,VWS V14.01,2013-01-02 15:21:00,
2013-01-02 11:26:00,83.3,38.1,30.03,ESE,107,6.3,9.6,20,0.00,,SCT120,0.00,VWS V14.01,2013-01-02 15:26:00,
2013-01-02 11:31:00,83.3,38.1,30.03,ESE,111,5.4,9.6,20,0.00,,SCT120,0.00,VWS V14.01,2013-01-02 15:31:00,
2013-01-02 11:36:00,83.5,38.2,30.03,NE,52,5.4,9.6,20,0.00,,SCT120,0.00,VWS V14.01,2013-01-02 15:36:00,
2013-01-02 11:41:00,83.8,38.5,30.03,ESE,107,3.1,6.3,20,0.00,,SCT120,0.00,VWS V14.01,2013-01-02 15:41:00,
2013-01-02 11:46:00,84.0,37.4,30.03,ESE,112,3.1,10.5,19,0.00,,SCT120,0.00,VWS V14.01,2013-01-02 15:46:00,
2013-01-02 11:51:00,84.0,37.4,30.03,ENE,62,8.1,10.5,19,0.00,,SCT120,0.00,VWS V14.01,2013-01-02 15:51:00,
2013-01-02 11:56:00,84.2,37.5,30.03,ESE,119,6.3,10.5,19,0.00,,SCT120,0.00,VWS V14.01,2013-01-02 15:56:00,
2013-01-02 12:01:00,84.6,39.1,30.03,East,83,2.7,6.3,20,0.00,,SCT120,0.00,VWS V14.01,2013-01-02 16:01:00,
2013-01-02 12:06:00,84.6,37.8,30.03,ESE,115,4.0,11.0,19,0.00,,SCT120,0.00,VWS V14.01,2013-01-02 16:06:00,
2013-01-02 12:11:00,84.7,38.0,30.03,NE,51,5.4,12.3,19,0.00,,SCT120,0.00,VWS V14.01,2013-01-02 16:11:00,
2013-01-02 12:16:00,84.7,38.0,30.03,ENE,73,10.1,12.3,19,0.00,,SCT120,0.00,VWS V14.01,2013-01-02 16:16:00,
2013-01-02 12:21:00,84.7,38.0,30.00,ENE,61,8.7,10.1,19,0.00,,SCT120,0.00,VWS V14.01,2013-01-02 16:21:00,
2013-01-02 12:26:00,84.7,38.0,30.00,East,92,5.8,10.1,19,0.00,,SCT120,0.00,VWS V14.01,2013-01-02 16:26:00,
2013-01-02 12:31:00,84.7,38.0,30.00,East,83,4.9,12.8,19,0.00,,SCT120,0.00,VWS V14.01,2013-01-02 16:31:00,
2013-01-02 12:36:00,85.1,33.9,30.00,ENE,65,3.1,12.8,16,0.00,,SCT120,0.00,VWS V14.01,2013-01-02 16:36:00,
2013-01-02 12:41:00,85.1,36.9,30.00,ESE,109,7.6,10.1,18,0.00,,SCT120,0.00,VWS V14.01,2013-01-02 16:41:00,
2013-01-02 12:46:00,85.3,34.1,30.00,NNE,31,5.4,10.5,16,0.00,,SCT120,0.00,VWS V14.01,2013-01-02 16:46:00,
2013-01-02 12:51:00,85.5,34.2,30.00,ESE,119,4.9,11.0,16,0.00,,SCT120,0.00,VWS V14.01,2013-01-02 16:51:00,
2013-01-02 12:56:00,85.6,34.3,30.00,East,83,3.1,11.0,16,0.00,,SCT120,0.00,VWS V14.01,2013-01-02 16:56:00,
2013-01-02 13:01:00,86.2,29.6,30.00,SE,134,5.8,8.7,13,0.00,,SCT120,0.00,VWS V14.01,2013-01-02 17:01:00,
2013-01-02 13:06:00,86.4,34.9,30.00,NE,41,10.1,10.1,16,0.00,,SCT120,0.00,VWS V14.01,2013-01-02 17:06:00,
2013-01-02 13:11:00,86.4,37.9,30.00,ESE,110,2.7,10.1,18,0.00,,SCT120,0.00,VWS V14.01,2013-01-02 17:11:00,
2013-01-02 13:16:00,86.5,35.1,30.00,East,101,4.9,10.1,16,0.00,,SCT120,0.00,VWS V14.01,2013-01-02 17:16:00,
2013-01-02 13:21:00,86.9,30.2,30.00,NE,41,7.6,7.6,13,0.00,,SCT120,0.00,VWS V14.01,2013-01-02 17:21:00,
2013-01-02 13:26:00,86.5,35.1,30.00,East,83,7.6,10.5,16,0.00,,SCT120,0.00,VWS V14.01,2013-01-02 17:26:00,
2013-01-02 13:31:00,86.7,35.2,30.00,East,92,4.0,10.5,16,0.00,,SCT120,0.00,VWS V14.01,2013-01-02 17:31:00,
2013-01-02 13:36:00,86.9,38.3,29.97,ESE,112,5.4,10.5,18,0.00,,SCT120,0.00,VWS V14.01,2013-01-02 17:36:00,
2013-01-02 13:41:00,86.7,26.0,29.97,SE,137,5.4,8.3,11,0.00,,SCT120,0.00,VWS V14.01,2013-01-02 17:41:00,
2013-01-02 13:46:00,86.7,26.0,29.97,ESE,106,4.9,11.0,11,0.00,,SCT120,0.00,VWS V14.01,2013-01-02 17:46:00,
2013-01-02 13:51:00,86.5,25.9,29.97,East,93,5.8,11.0,11,0.00,,SCT120,0.00,VWS V14.01,2013-01-02 17:51:00,
2013-01-02 13:56:00,86.5,25.9,29.97,NE,55,8.3,11.4,11,0.00,,SCT120,0.00,VWS V14.01,2013-01-02 17:56:00,
2013-01-02 14:01:00,86.5,25.9,29.97,East,90,5.4,10.5,11,0.00,,SCT120,0.00,VWS V14.01,2013-01-02 18:01:00,
2013-01-02 14:06:00,87.1,30.3,29.97,ENE,61,8.1,10.5,13,0.00,,SCT120,0.00,VWS V14.01,2013-01-02 18:06:00,
2013-01-02 14:11:00,86.9,26.1,29.97,ESE,111,8.3,10.5,11,0.00,,SCT120,0.00,VWS V14.01,2013-01-02 18:11:00,
2013-01-02 14:16:00,87.1,30.3,29.97,SE,140,7.6,10.5,13,0.00,,SCT120,0.00,VWS V14.01,2013-01-02 18:16:00,
2013-01-02 14:21:00,87.1,30.3,29.97,ENE,61,8.7,8.7,13,0.00,,SCT120,0.00,VWS V14.01,2013-01-02 18:21:00,
2013-01-02 14:26:00,87.1,26.3,29.97,North,357,6.3,8.7,11,0.00,,SCT120,0.00,VWS V14.01,2013-01-02 18:26:00,
2013-01-02 14:31:00,87.1,26.3,29.97,SE,143,4.0,10.1,11,0.00,,SCT120,0.00,VWS V14.01,2013-01-02 18:31:00,
2013-01-02 14:36:00,87.1,30.3,29.97,ESE,115,4.9,10.1,13,0.00,,SCT120,0.00,VWS V14.01,2013-01-02 18:36:00,
2013-01-02 14:41:00,87.3,30.5,29.97,SE,140,5.8,6.3,13,0.00,,SCT120,0.00,VWS V14.01,2013-01-02 18:41:00,
2013-01-02 14:46:00,87.6,30.8,29.97,ESE,120,5.8,8.3,13,0.00,,SCT120,0.00,VWS V14.01,2013-01-02 18:46:00,
2013-01-02 14:51:00,87.8,30.9,29.97,ESE,119,4.0,8.3,13,0.00,,SCT120,0.00,VWS V14.01,2013-01-02 18:51:00,
2013-01-02 14:56:00,87.6,26.7,29.97,East,81,5.4,9.6,11,0.00,,SCT120,0.00,VWS V14.01,2013-01-02 18:56:00,
2013-01-02 15:01:00,87.4,30.6,29.97,ESE,116,5.4,5.8,13,0.00,,SCT120,0.00,VWS V14.01,2013-01-02 19:01:00,
2013-01-02 15:07:00,87.3,30.5,29.97,SE,137,6.3,8.1,13,0.00,,SCT120,0.00,VWS V14.01,2013-01-02 19:07:00,
2013-01-02 15:12:00,86.9,26.1,29.97,ENE,75,2.2,8.7,11,0.00,,SCT120,0.00,VWS V14.01,2013-01-02 19:12:00,
2013-01-02 15:17:00,86.9,26.1,29.97,SE,125,4.0,10.5,11,0.00,,SCT120,0.00,VWS V14.01,2013-01-02 19:17:00,
2013-01-02 15:22:00,86.9,26.1,29.97,ENE,64,5.8,8.3,11,0.00,,SCT120,0.00,VWS V14.01,2013-01-02 19:22:00,
2013-01-02 15:27:00,86.7,26.0,29.97,SE,124,3.6,8.3,11,0.00,,SCT120,0.00,VWS V14.01,2013-01-02 19:27:00,
2013-01-02 15:32:00,86.7,26.0,29.97,East,87,5.8,9.6,11,0.00,,SCT120,0.00,VWS V14.01,2013-01-02 19:32:00,
2013-01-02 15:37:00,86.4,25.7,29.97,NE,35,4.9,9.6,11,0.00,,SCT120,0.00,VWS V14.01,2013-01-02 19:37:00,
2013-01-02 15:42:00,86.5,25.9,29.97,East,85,4.0,5.8,11,0.00,,SCT120,0.00,VWS V14.01,2013-01-02 19:42:00,
2013-01-02 15:47:00,86.4,25.7,29.97,ESE,116,2.7,6.3,11,0.00,,SCT120,0.00,VWS V14.01,2013-01-02 19:47:00,
2013-01-02 15:52:00,86.5,25.9,29.97,ESE,108,5.8,9.6,11,0.00,,SCT120,0.00,VWS V14.01,2013-01-02 19:52:00,
2013-01-02 15:57:00,86.5,25.9,29.97,ESE,103,5.8,9.6,11,0.00,,SCT120,0.00,VWS V14.01,2013-01-02 19:57:00,
2013-01-02 16:02:00,86.7,26.0,29.97,East,84,4.9,5.4,11,0.00,,SCT120,0.00,VWS V14.01,2013-01-02 20:02:00,
2013-01-02 16:07:00,86.5,25.9,29.94,East,97,5.4,7.6,11,0.00,,SCT120,0.00,VWS V14.01,2013-01-02 20:07:00,
2013-01-02 16:12:00,86.2,25.6,29.94,ENE,77,3.1,7.6,11,0.00,,SCT120,0.00,VWS V14.01,2013-01-02 20:12:00,
2013-01-02 16:17:00,86.4,25.7,29.94,East,79,2.7,7.6,11,0.00,,SCT120,0.00,VWS V14.01,2013-01-02 20:17:00,
2013-01-02 16:22:00,85.8,25.3,29.94,East,79,2.7,2.7,11,0.00,,SCT120,0.00,VWS V14.01,2013-01-02 20:22:00,
2013-01-02 16:27:00,85.8,25.3,29.94,East,87,6.3,6.3,11,0.00,,SCT120,0.00,VWS V14.01,2013-01-02 20:27:00,
2013-01-02 16:32:00,85.5,17.5,29.94,East,87,6.3,6.3,8,0.00,,SCT120,0.00,VWS V14.01,2013-01-02 20:32:00,
2013-01-02 16:37:00,85.3,17.4,29.94,East,87,6.3,6.3,8,0.00,,SCT120,0.00,VWS V14.01,2013-01-02 20:37:00,
2013-01-02 16:42:00,85.3,24.9,29.94,East,87,6.3,6.3,11,0.00,,SCT120,0.00,VWS V14.01,2013-01-02 20:42:00,
2013-01-02 16:47:00,84.9,28.6,29.94,East,87,6.3,6.3,13,0.00,,SCT120,0.00,VWS V14.01,2013-01-02 20:47:00,
2013-01-02 16:52:00,84.9,24.6,29.94,East,87,6.3,6.3,11,0.00,,SCT120,0.00,VWS V14.01,2013-01-02 20:52:00,
2013-01-02 16:57:00,84.6,24.3,29.94,East,87,6.3,6.3,11,0.00,,SCT120,0.00,VWS V14.01,2013-01-02 20:57:00,
2013-01-02 17:02:00,84.2,24.0,29.94,East,87,6.3,6.3,11,0.00,,SCT120,0.00,VWS V14.01,2013-01-02 21:02:00,
2013-01-02 17:07:00,84.0,23.9,29.97,East,87,6.3,6.3,11,0.00,,SCT120,0.00,VWS V14.01,2013-01-02 21:07:00,
2013-01-02 17:12:00,83.7,29.5,29.97,East,87,6.3,6.3,14,0.00,,SCT120,0.00,VWS V14.01,2013-01-02 21:12:00,
2013-01-02 17:17:00,83.5,32.6,29.97,East,87,6.3,6.3,16,0.00,,SCT120,0.00,VWS V14.01,2013-01-02 21:17:00,
2013-01-02 17:22:00,83.3,36.8,29.97,East,87,6.3,6.3,19,0.00,,SCT120,0.00,VWS V14.01,2013-01-02 21:22:00,
2013-01-02 17:27:00,82.9,36.5,29.97,East,87,6.3,6.3,19,0.00,,SCT120,0.00,VWS V14.01,2013-01-02 21:27:00,
2013-01-02 17:32:00,82.6,36.2,29.97,East,87,6.3,6.3,19,0.00,,SCT120,0.00,VWS V14.01,2013-01-02 21:32:00,
2013-01-02 17:37:00,82.2,37.2,29.97,East,87,6.3,6.3,20,0.00,,SCT120,0.00,VWS V14.01,2013-01-02 21:37:00,
2013-01-02 17:42:00,81.9,36.9,29.97,East,87,6.3,6.3,20,0.00,,SCT120,0.00,VWS V14.01,2013-01-02 21:42:00,
2013-01-02 17:47:00,81.7,36.8,29.97,East,87,6.3,6.3,20,0.00,,SCT120,0.00,VWS V14.01,2013-01-02 21:47:00,
2013-01-02 17:52:00,81.3,36.5,29.97,East,87,6.3,6.3,20,0.00,,SCT120,0.00,VWS V14.01,2013-01-02 21:52:00,
2013-01-02 17:57:00,81.3,36.5,29.97,East,87,6.3,6.3,20,0.00,,SCT120,0.00,VWS V14.01,2013-01-02 21:57:00,
2013-01-02 18:02:00,81.1,36.3,29.97,East,87,6.3,6.3,20,0.00,,SCT120,0.00,VWS V14.01,2013-01-02 22:02:00,
2013-01-02 18:07:00,81.1,36.3,29.97,East,87,6.3,6.3,20,0.00,,SCT120,0.00,VWS V14.01,2013-01-02 22:07:00,
2013-01-02 18:12:00,80.8,36.0,29.97,East,87,6.3,6.3,20,0.00,,SCT120,0.00,VWS V14.01,2013-01-02 22:12:00,
2013-01-02 18:17:00,80.4,37.0,29.97,East,87,6.3,6.3,21,0.00,,SCT120,0.00,VWS V14.01,2013-01-02 22:17:00,
2013-01-02 18:22:00,80.2,38.0,29.97,East,87,6.3,6.3,22,0.00,,SCT120,0.00,VWS V14.01,2013-01-02 22:22:00,
2013-01-02 18:27:00,80.1,37.8,29.97,East,87,6.3,6.3,22,0.00,,SCT120,0.00,VWS V14.01,2013-01-02 22:27:00,
2013-01-02 18:32:00,79.9,38.8,29.97,East,87,6.3,6.3,23,0.00,,SCT120,0.00,VWS V14.01,2013-01-02 22:32:00,
2013-01-02 18:37:00,79.7,39.8,29.97,East,87,6.3,6.3,24,0.00,,SCT120,0.00,VWS V14.01,2013-01-02 22:37:00,
2013-01-02 18:42:00,79.3,41.5,29.97,East,87,6.3,6.3,26,0.00,,SCT120,0.00,VWS V14.01,2013-01-02 22:42:00,
2013-01-02 18:47:00,79.0,42.2,29.97,East,87,6.3,6.3,27,0.00,,SCT120,0.00,VWS V14.01,2013-01-02 22:47:00,
2013-01-02 18:52:00,79.0,42.2,29.97,SSW,203,0.0,6.3,27,0.00,,SCT120,0.00,VWS V14.01,2013-01-02 22:52:00,
2013-01-02 18:57:00,78.4,44.5,29.97,SSW,203,0.0,6.3,30,0.00,,SCT120,0.00,VWS V14.01,2013-01-02 22:57:00,
2013-01-02 19:02:00,77.9,44.9,29.97,SSW,203,0.0,0.0,31,0.00,,SCT120,0.00,VWS V14.01,2013-01-02 23:02:00,
2013-01-02 19:07:00,77.4,44.4,30.00,SSW,203,0.0,0.0,31,0.00,,SCT120,0.00,VWS V14.01,2013-01-02 23:07:00,
2013-01-02 19:12:00,77.2,45.1,30.00,SSW,203,0.0,0.0,32,0.00,,SCT120,0.00,VWS V14.01,2013-01-02 23:12:00,
2013-01-02 19:17:00,77.2,45.1,30.00,SSW,203,0.0,0.0,32,0.00,,SCT120,0.00,VWS V14.01,2013-01-02 23:17:00,
2013-01-02 19:22:00,77.5,45.4,30.00,SSW,202,0.0,0.0,32,0.00,,SCT120,0.00,VWS V14.01,2013-01-02 23:22:00,
2013-01-02 19:27:00,77.5,45.4,30.00,SSW,203,0.0,0.0,32,0.00,,SCT120,0.00,VWS V14.01,2013-01-02 23:27:00,
2013-01-02 19:32:00,77.4,44.4,30.00,SSW,202,0.0,0.0,31,0.00,,SCT120,0.00,VWS V14.01,2013-01-02 23:32:00,
2013-01-02 19:37:00,76.6,45.4,30.00,SSW,202,0.0,0.0,33,0.00,,SCT120,0.00,VWS V14.01,2013-01-02 23:37:00,
2013-01-02 19:42:00,76.1,44.9,30.00,SSW,202,0.0,0.0,33,0.00,,SCT120,0.00,VWS V14.01,2013-01-02 23:42:00,
2013-01-02 19:47:00,75.7,45.4,30.00,SSW,202,0.0,0.0,34,0.00,,SCT120,0.00,VWS V14.01,2013-01-02 23:47:00,
2013-01-02 19:52:00,75.4,45.9,30.00,ENE,66,0.0,0.0,35,0.00,,SCT120,0.00,VWS V14.01,2013-01-02 23:52:00,
2013-01-02 19:57:00,75.4,45.9,30.00,ENE,67,0.0,0.0,35,0.00,,SCT120,0.00,VWS V14.01,2013-01-02 23:57:00,
2013-01-02 20:02:00,75.6,46.0,30.00,SSW,198,0.0,0.0,35,0.00,,SCT120,0.00,VWS V14.01,2013-01-03 00:02:00,
2013-01-02 20:07:00,75.6,46.0,30.00,SSW,202,0.0,3.1,35,0.00,,SCT120,0.00,VWS V14.01,2013-01-03 00:07:00,
2013-01-02 20:12:00,75.6,46.0,30.00,SSW,202,0.0,3.1,35,0.00,,SCT120,0.00,VWS V14.01,2013-01-03 00:12:00,
2013-01-02 20:17:00,75.2,45.7,30.00,SSW,202,0.0,3.1,35,0.00,,SCT120,0.00,VWS V14.01,2013-01-03 00:17:00,
2013-01-02 20:22:00,74.8,46.1,30.00,SSW,202,0.0,0.0,36,0.00,,SCT120,0.00,VWS V14.01,2013-01-03 00:22:00,
2013-01-02 20:27:00,74.7,46.7,30.00,SSW,202,0.0,0.0,37,0.00,,SCT120,0.00,VWS V14.01,2013-01-03 00:27:00,
2013-01-02 20:33:00,74.3,47.1,30.00,SSW,202,0.0,0.0,38,0.00,,SCT120,0.00,VWS V14.01,2013-01-03 00:33:00,
2013-01-02 20:38:00,73.9,48.1,30.00,SSW,202,0.0,0.0,40,0.00,,SCT120,0.00,VWS V14.01,2013-01-03 00:38:00,
2013-01-02 20:43:00,73.6,48.5,30.00,East,93,0.0,0.0,41,0.00,,SCT120,0.00,VWS V14.01,2013-01-03 00:43:00,
2013-01-02 20:48:00,73.8,48.6,30.00,East,93,0.0,0.0,41,0.00,,SCT120,0.00,VWS V14.01,2013-01-03 00:48:00,
2013-01-02 20:53:00,73.9,48.8,30.03,East,94,0.0,0.0,41,0.00,,SCT120,0.00,VWS V14.01,2013-01-03 00:53:00,
2013-01-02 20:58:00,73.9,48.8,30.03,East,93,0.0,0.0,41,0.00,,SCT120,0.00,VWS V14.01,2013-01-03 00:58:00,
2013-01-02 21:03:00,73.6,49.1,30.03,East,93,0.0,0.0,42,0.00,,SCT120,0.00,VWS V14.01,2013-01-03 01:03:00,
2013-01-02 21:08:00,73.4,49.6,30.03,East,93,0.0,0.0,43,0.00,,SCT120,0.00,VWS V14.01,2013-01-03 01:08:00,
2013-01-02 21:13:00,73.2,49.4,30.03,East,93,0.0,0.0,43,0.00,,SCT120,0.00,VWS V14.01,2013-01-03 01:13:00,
2013-01-02 21:18:00,73.2,50.0,30.03,East,93,0.0,0.0,44,0.00,,SCT120,0.00,VWS V14.01,2013-01-03 01:18:00,
2013-01-02 21:23:00,73.4,49.6,30.03,SSE,148,0.0,0.0,43,0.00,,SCT120,0.00,VWS V14.01,2013-01-03 01:23:00,
2013-01-02 21:28:00,73.2,50.0,30.03,SSE,147,0.0,0.0,44,0.00,,SCT120,0.00,VWS V14.01,2013-01-03 01:28:00,
2013-01-02 21:33:00,73.0,49.9,30.03,SSE,147,0.0,0.0,44,0.00,,SCT120,0.00,VWS V14.01,2013-01-03 01:33:00,
2013-01-02 21:38:00,72.7,50.1,30.03,SSE,148,0.0,0.0,45,0.00,,SCT120,0.00,VWS V14.01,2013-01-03 01:38:00,
2013-01-02 21:43:00,72.5,50.6,30.03,SSE,147,0.0,0.0,46,0.00,,SCT120,0.00,VWS V14.01,2013-01-03 01:43:00,
2013-01-02 21:48:00,72.3,51.0,30.03,SSE,147,0.0,0.0,47,0.00,,SCT120,0.00,VWS V14.01,2013-01-03 01:48:00,
2013-01-02 21:53:00,72.3,51.5,30.03,SSE,147,0.0,0.0,48,0.00,,SCT120,0.00,VWS V14.01,2013-01-03 01:53:00,
2013-01-02 21:58:00,72.1,51.9,30.03,SSE,147,0.0,0.0,49,0.00,,SCT120,0.00,VWS V14.01,2013-01-03 01:58:00,
2013-01-02 22:03:00,72.0,51.8,30.03,SSE,147,0.0,0.0,49,0.00,,SCT120,0.00,VWS V14.01,2013-01-03 02:03:00,
2013-01-02 22:08:00,72.0,52.3,30.03,SSE,147,0.0,0.0,50,0.00,,SCT120,0.00,VWS V14.01,2013-01-03 02:08:00,
2013-01-02 22:13:00,71.8,52.7,30.03,SSE,147,0.0,0.0,51,0.00,,SCT120,0.00,VWS V14.01,2013-01-03 02:13:00,
2013-01-02 22:18:00,71.8,53.2,30.03,SSE,147,0.0,0.0,52,0.00,,SCT120,0.00,VWS V14.01,2013-01-03 02:18:00,
2013-01-02 22:23:00,71.8,53.8,30.03,SSE,148,0.0,0.0,53,0.00,,SCT120,0.00,VWS V14.01,2013-01-03 02:23:00,
2013-01-02 22:28:00,72.0,54.4,30.03,SSE,147,0.0,0.0,54,0.00,,SCT120,0.00,VWS V14.01,2013-01-03 02:28:00,
2013-01-02 22:33:00,72.1,54.6,30.03,SSE,148,0.0,0.0,54,0.00,,SCT120,0.00,VWS V14.01,2013-01-03 02:33:00,
2013-01-02 22:38:00,72.1,54.6,30.03,SE,146,0.0,0.0,54,0.00,,SCT120,0.00,VWS V14.01,2013-01-03 02:38:00,
2013-01-02 22:43:00,71.8,54.3,30.03,SSE,147,0.0,0.0,54,0.00,,SCT120,0.00,VWS V14.01,2013-01-03 02:43:00,
2013-01-02 22:48:00,71.6,55.1,30.03,SSE,147,0.0,0.0,56,0.00,,SCT120,0.00,VWS V14.01,2013-01-03 02:48:00,
2013-01-02 22:53:00,71.4,55.9,30.03,SSE,147,0.0,0.0,58,0.00,,SCT120,0.00,VWS V14.01,2013-01-03 02:53:00,
2013-01-02 22:58:00,71.6,56.5,30.03,SSE,147,0.0,0.0,59,0.00,,SCT120,0.00,VWS V14.01,2013-01-03 02:58:00,
2013-01-02 23:03:00,71.6,56.5,30.03,SSE,147,0.0,0.0,59,0.00,,SCT120,0.00,VWS V14.01,2013-01-03 03:03:00,
2013-01-02 23:08:00,71.6,56.5,30.03,SSE,147,0.0,0.0,59,0.00,,SCT120,0.00,VWS V14.01,2013-01-03 03:08:00,
2013-01-02 23:13:00,71.6,56.5,30.03,SSE,147,0.0,0.0,59,0.00,,SCT120,0.00,VWS V14.01,2013-01-03 03:13:00,
2013-01-02 23:18:00,71.6,56.5,30.03,SSE,147,0.0,0.0,59,0.00,,SCT120,0.00,VWS V14.01,2013-01-03 03:18:00,
2013-01-02 23:23:00,71.6,56.5,30.03,SSE,147,0.0,0.0,59,0.00,,SCT120,0.00,VWS V14.01,2013-01-03 03:23:00,
2013-01-02 23:28:00,71.4,56.4,30.03,SSE,147,0.0,0.0,59,0.00,,SCT120,0.00,VWS V14.01,2013-01-03 03:28:00,
2013-01-02 23:33:00,71.4,56.8,30.03,SSE,147,0.0,0.0,60,0.00,,SCT120,0.00,VWS V14.01,2013-01-03 03:33:00,
2013-01-02 23:38:00,71.4,56.8,30.03,SSE,147,0.0,0.0,60,0.00,,SCT120,0.00,VWS V14.01,2013-01-03 03:38:00,
2013-01-02 23:43:00,71.1,57.0,30.03,SSE,147,0.0,0.0,61,0.00,,SCT120,0.00,VWS V14.01,2013-01-03 03:43:00,
2013-01-02 23:48:00,70.9,57.2,30.03,SSE,148,0.0,0.0,62,0.00,,SCT120,0.00,VWS V14.01,2013-01-03 03:48:00,
2013-01-02 23:53:00,70.7,57.9,30.03,SSE,147,0.0,0.0,64,0.00,,SCT120,0.00,VWS V14.01,2013-01-03 03:53:00,
2013-01-02 23:58:00,70.7,58.4,30.03,SSE,147,0.0,0.0,65,0.00,,SCT120,0.00,VWS V14.01,2013-01-03 03:58:00,